<?xml version="1.0" encoding="UTF-8" standalone="no" ?>
<gpx xmlns="http://www.topografix.com/GPX/1/1" xmlns:xsi="http://www.w3.org/2001/XMLSchema-instance" xsi:schemaLocation="http://www.topografix.com/GPX/1/1 http://www.topografix.com/GPX/1/1/gpx.xsd" version="1.1" creator="VisuGPX - https://www.visugpx.com">
  <metadata>
    <name>Via podiensis Le Puy-Cahors</name>
  </metadata>
  <trk>
    <name><![CDATA[Via podiensis Le Puy-Cahors_1]]></name>
    <extensions>
      <line xmlns="http://www.topografix.com/GPX/gpx_style/0/2">
        <color>FF0000</color>
        <width>4</width>
      </line>
    </extensions>
    <trkseg>
      <trkpt lat="45.04628" lon="3.88329">
        <ele>661.48046875</ele>
        <time>2013-01-07T16:45:43Z</time>
      </trkpt>
      <trkpt lat="45.04628" lon="3.88329">
        <ele>661.48046875</ele>
        <time>2013-01-07T16:45:43Z</time>
      </trkpt>
      <trkpt lat="45.04553" lon="3.88328">
        <ele>656.8515625</ele>
        <time>2013-01-07T16:46:03Z</time>
      </trkpt>
      <trkpt lat="45.04536" lon="3.88252">
        <ele>644.5703125</ele>
        <time>2013-01-07T16:46:23Z</time>
      </trkpt>
      <trkpt lat="45.04393" lon="3.88286">
        <ele>636.7265625</ele>
        <time>2013-01-07T16:46:43Z</time>
      </trkpt>
      <trkpt lat="45.04351" lon="3.88262">
        <ele>633.91015625</ele>
        <time>2013-01-07T16:47:03Z</time>
      </trkpt>
      <trkpt lat="45.0433" lon="3.88353">
        <ele>630.33984375</ele>
        <time>2013-01-07T16:47:23Z</time>
      </trkpt>
      <trkpt lat="45.04323" lon="3.88252">
        <ele>632.83203125</ele>
        <time>2012-06-07T17:43:11Z</time>
      </trkpt>
      <trkpt lat="45.04281" lon="3.87944">
        <ele>644.5078125</ele>
        <time>2012-06-07T17:43:31Z</time>
      </trkpt>
      <trkpt lat="45.04246" lon="3.87831">
        <ele>653.73046875</ele>
        <time>2012-06-07T17:43:51Z</time>
      </trkpt>
      <trkpt lat="45.04194" lon="3.87717">
        <ele>662.890625</ele>
        <time>2012-06-07T17:44:11Z</time>
      </trkpt>
      <trkpt lat="45.04131" lon="3.87609">
        <ele>677.5625</ele>
        <time>2012-06-07T17:44:31Z</time>
      </trkpt>
      <trkpt lat="45.04182" lon="3.87573">
        <ele>679.8359375</ele>
        <time>2012-06-07T17:44:51Z</time>
      </trkpt>
      <trkpt lat="45.04165" lon="3.87462">
        <ele>694.67578125</ele>
        <time>2012-06-07T17:45:11Z</time>
      </trkpt>
      <trkpt lat="45.04093" lon="3.87309">
        <ele>715.09765625</ele>
        <time>2012-06-07T17:45:31Z</time>
      </trkpt>
      <trkpt lat="45.04078" lon="3.87314">
        <ele>718.40625</ele>
        <time>2012-06-07T17:45:51Z</time>
      </trkpt>
      <trkpt lat="45.04042" lon="3.8739">
        <ele>722.69921875</ele>
        <time>2012-06-07T17:46:11Z</time>
      </trkpt>
      <trkpt lat="45.04024" lon="3.87409">
        <ele>723.69140625</ele>
        <time>2012-06-07T17:46:31Z</time>
      </trkpt>
      <trkpt lat="45.04015" lon="3.87402">
        <ele>725.7578125</ele>
        <time>2012-06-07T17:46:51Z</time>
      </trkpt>
      <trkpt lat="45.04015" lon="3.87348">
        <ele>730.29296875</ele>
        <time>2012-06-07T17:47:11Z</time>
      </trkpt>
      <trkpt lat="45.03992" lon="3.87276">
        <ele>738.16796875</ele>
        <time>2012-06-07T17:47:31Z</time>
      </trkpt>
      <trkpt lat="45.0396" lon="3.87243">
        <ele>744.23828125</ele>
        <time>2012-06-07T17:47:51Z</time>
      </trkpt>
      <trkpt lat="45.03886" lon="3.87217">
        <ele>754.55859375</ele>
        <time>2012-06-07T17:48:11Z</time>
      </trkpt>
      <trkpt lat="45.03844" lon="3.87213">
        <ele>760.3203125</ele>
        <time>2012-06-07T17:48:31Z</time>
      </trkpt>
      <trkpt lat="45.03774" lon="3.87103">
        <ele>767.22265625</ele>
        <time>2012-06-07T17:48:51Z</time>
      </trkpt>
      <trkpt lat="45.03745" lon="3.87034">
        <ele>768.68359375</ele>
        <time>2012-06-07T17:49:11Z</time>
      </trkpt>
      <trkpt lat="45.03715" lon="3.86986">
        <ele>770.46875</ele>
        <time>2012-06-07T17:49:31Z</time>
      </trkpt>
      <trkpt lat="45.03467" lon="3.86772">
        <ele>767.625</ele>
        <time>2012-06-07T17:49:51Z</time>
      </trkpt>
      <trkpt lat="45.03256" lon="3.86661">
        <ele>759.9765625</ele>
        <time>2012-06-07T17:50:11Z</time>
      </trkpt>
      <trkpt lat="45.03225" lon="3.86615">
        <ele>757.79296875</ele>
        <time>2012-06-07T17:50:31Z</time>
      </trkpt>
      <trkpt lat="45.03178" lon="3.86526">
        <ele>760.5859375</ele>
        <time>2012-06-07T17:50:51Z</time>
      </trkpt>
      <trkpt lat="45.03121" lon="3.86463">
        <ele>764.7109375</ele>
        <time>2012-06-07T17:51:11Z</time>
      </trkpt>
      <trkpt lat="45.031" lon="3.86421">
        <ele>767.234375</ele>
        <time>2012-06-07T17:51:31Z</time>
      </trkpt>
      <trkpt lat="45.03024" lon="3.86315">
        <ele>769.69921875</ele>
        <time>2012-06-07T17:51:51Z</time>
      </trkpt>
      <trkpt lat="45.02996" lon="3.8626">
        <ele>771.0625</ele>
        <time>2012-06-07T17:52:11Z</time>
      </trkpt>
      <trkpt lat="45.02857" lon="3.85889">
        <ele>787.73828125</ele>
        <time>2012-06-07T17:52:31Z</time>
      </trkpt>
      <trkpt lat="45.02875" lon="3.85852">
        <ele>790.359375</ele>
        <time>2012-06-07T17:52:51Z</time>
      </trkpt>
      <trkpt lat="45.02828" lon="3.85727">
        <ele>801.16796875</ele>
        <time>2012-06-07T17:53:11Z</time>
      </trkpt>
      <trkpt lat="45.0277" lon="3.85649">
        <ele>808.53125</ele>
        <time>2012-06-07T17:53:31Z</time>
      </trkpt>
      <trkpt lat="45.02687" lon="3.85434">
        <ele>823.34375</ele>
        <time>2012-06-07T17:53:51Z</time>
      </trkpt>
      <trkpt lat="45.02587" lon="3.85145">
        <ele>835.78125</ele>
        <time>2012-06-07T17:54:11Z</time>
      </trkpt>
      <trkpt lat="45.02468" lon="3.84848">
        <ele>847.01953125</ele>
        <time>2012-06-07T17:54:31Z</time>
      </trkpt>
      <trkpt lat="45.02265" lon="3.84365">
        <ele>855.828125</ele>
        <time>2012-06-07T17:54:51Z</time>
      </trkpt>
      <trkpt lat="45.02271" lon="3.84321">
        <ele>856.015625</ele>
        <time>2012-06-07T17:55:11Z</time>
      </trkpt>
      <trkpt lat="45.022" lon="3.84064">
        <ele>861.05078125</ele>
        <time>2012-06-07T17:55:31Z</time>
      </trkpt>
      <trkpt lat="45.0218" lon="3.84014">
        <ele>862</ele>
        <time>2012-06-07T17:55:51Z</time>
      </trkpt>
      <trkpt lat="45.02141" lon="3.83788">
        <ele>864.1640625</ele>
        <time>2012-06-07T17:56:11Z</time>
      </trkpt>
      <trkpt lat="45.02102" lon="3.83634">
        <ele>865.58203125</ele>
        <time>2012-06-07T17:56:31Z</time>
      </trkpt>
      <trkpt lat="45.02056" lon="3.83575">
        <ele>866</ele>
        <time>2012-06-07T17:56:51Z</time>
      </trkpt>
      <trkpt lat="45.02023" lon="3.8351">
        <ele>865.42578125</ele>
        <time>2012-06-07T17:57:11Z</time>
      </trkpt>
      <trkpt lat="45.02016" lon="3.8346">
        <ele>865.671875</ele>
        <time>2012-06-07T17:57:31Z</time>
      </trkpt>
      <trkpt lat="45.01994" lon="3.83392">
        <ele>867.2265625</ele>
        <time>2012-06-07T17:57:51Z</time>
      </trkpt>
      <trkpt lat="45.01931" lon="3.83448">
        <ele>868.33984375</ele>
        <time>2012-06-07T17:58:11Z</time>
      </trkpt>
      <trkpt lat="45.01872" lon="3.8348">
        <ele>869.8671875</ele>
        <time>2012-06-07T17:58:31Z</time>
      </trkpt>
      <trkpt lat="45.01838" lon="3.83523">
        <ele>869.78125</ele>
        <time>2012-06-07T17:58:51Z</time>
      </trkpt>
      <trkpt lat="45.01796" lon="3.83547">
        <ele>870</ele>
        <time>2012-06-07T17:59:11Z</time>
      </trkpt>
      <trkpt lat="45.01782" lon="3.83572">
        <ele>870</ele>
        <time>2012-06-07T17:59:31Z</time>
      </trkpt>
      <trkpt lat="45.01725" lon="3.83619">
        <ele>869.14453125</ele>
        <time>2012-06-07T17:59:51Z</time>
      </trkpt>
      <trkpt lat="45.01677" lon="3.83692">
        <ele>864.00390625</ele>
        <time>2012-06-07T18:00:11Z</time>
      </trkpt>
      <trkpt lat="45.01635" lon="3.83741">
        <ele>851.07421875</ele>
        <time>2012-06-07T18:00:31Z</time>
      </trkpt>
      <trkpt lat="45.0161" lon="3.83585">
        <ele>849.90625</ele>
        <time>2012-06-07T18:00:51Z</time>
      </trkpt>
      <trkpt lat="45.01584" lon="3.83553">
        <ele>847.16796875</ele>
        <time>2012-06-07T18:01:11Z</time>
      </trkpt>
      <trkpt lat="45.01513" lon="3.83485">
        <ele>845.32421875</ele>
        <time>2012-06-07T18:01:31Z</time>
      </trkpt>
      <trkpt lat="45.01545" lon="3.83403">
        <ele>857.09375</ele>
        <time>2012-06-07T18:01:51Z</time>
      </trkpt>
      <trkpt lat="45.01556" lon="3.83355">
        <ele>858.8125</ele>
        <time>2012-06-07T18:02:11Z</time>
      </trkpt>
      <trkpt lat="45.01509" lon="3.83239">
        <ele>856.65625</ele>
        <time>2012-06-07T18:02:31Z</time>
      </trkpt>
      <trkpt lat="45.01467" lon="3.832">
        <ele>856.22265625</ele>
        <time>2012-06-07T18:02:51Z</time>
      </trkpt>
      <trkpt lat="45.01352" lon="3.83168">
        <ele>855.33984375</ele>
        <time>2012-06-07T18:03:11Z</time>
      </trkpt>
      <trkpt lat="45.01306" lon="3.83066">
        <ele>856.57421875</ele>
        <time>2012-06-07T18:03:31Z</time>
      </trkpt>
      <trkpt lat="45.01327" lon="3.82981">
        <ele>863.22265625</ele>
        <time>2012-06-07T18:03:51Z</time>
      </trkpt>
      <trkpt lat="45.01331" lon="3.82899">
        <ele>865.02734375</ele>
        <time>2012-06-07T18:04:11Z</time>
      </trkpt>
      <trkpt lat="45.01317" lon="3.82832">
        <ele>864.2265625</ele>
        <time>2012-06-07T18:04:31Z</time>
      </trkpt>
      <trkpt lat="45.01292" lon="3.82794">
        <ele>863.0859375</ele>
        <time>2012-06-07T18:04:51Z</time>
      </trkpt>
      <trkpt lat="45.01279" lon="3.82752">
        <ele>867.92578125</ele>
        <time>2012-06-07T18:05:11Z</time>
      </trkpt>
      <trkpt lat="45.01241" lon="3.8272">
        <ele>866.6328125</ele>
        <time>2012-06-07T18:05:31Z</time>
      </trkpt>
      <trkpt lat="45.01218" lon="3.82663">
        <ele>873.5859375</ele>
        <time>2012-06-07T18:05:51Z</time>
      </trkpt>
      <trkpt lat="45.01207" lon="3.82602">
        <ele>879.09375</ele>
        <time>2012-06-07T18:06:11Z</time>
      </trkpt>
      <trkpt lat="45.01054" lon="3.82549">
        <ele>874.34765625</ele>
        <time>2012-06-07T18:06:31Z</time>
      </trkpt>
      <trkpt lat="45.01001" lon="3.82557">
        <ele>867.07421875</ele>
        <time>2012-06-07T18:06:51Z</time>
      </trkpt>
      <trkpt lat="45.0091" lon="3.82516">
        <ele>867.6953125</ele>
        <time>2012-06-07T18:07:11Z</time>
      </trkpt>
      <trkpt lat="45.00834" lon="3.82465">
        <ele>871.96484375</ele>
        <time>2012-06-07T18:07:31Z</time>
      </trkpt>
      <trkpt lat="45.00747" lon="3.82456">
        <ele>876.55859375</ele>
        <time>2012-06-07T18:07:51Z</time>
      </trkpt>
      <trkpt lat="45.00722" lon="3.82423">
        <ele>883.43359375</ele>
        <time>2012-06-07T18:08:11Z</time>
      </trkpt>
      <trkpt lat="45.00545" lon="3.82329">
        <ele>877.98046875</ele>
        <time>2012-06-07T18:08:31Z</time>
      </trkpt>
      <trkpt lat="45.00528" lon="3.82292">
        <ele>877.5234375</ele>
        <time>2012-06-07T18:08:51Z</time>
      </trkpt>
      <trkpt lat="45.00492" lon="3.82262">
        <ele>874.94140625</ele>
        <time>2012-06-07T18:09:11Z</time>
      </trkpt>
      <trkpt lat="45.00454" lon="3.82196">
        <ele>877.39453125</ele>
        <time>2012-06-07T18:09:31Z</time>
      </trkpt>
      <trkpt lat="45.00449" lon="3.82173">
        <ele>878.4375</ele>
        <time>2012-06-07T18:09:51Z</time>
      </trkpt>
      <trkpt lat="45.00421" lon="3.82154">
        <ele>881.546875</ele>
        <time>2012-06-07T18:10:11Z</time>
      </trkpt>
      <trkpt lat="45.004" lon="3.82161">
        <ele>885.5703125</ele>
        <time>2012-06-07T18:10:31Z</time>
      </trkpt>
      <trkpt lat="45.00371" lon="3.82139">
        <ele>888.46484375</ele>
        <time>2012-06-07T18:10:51Z</time>
      </trkpt>
      <trkpt lat="45.00336" lon="3.8209">
        <ele>890.6875</ele>
        <time>2012-06-07T18:11:11Z</time>
      </trkpt>
      <trkpt lat="45.00285" lon="3.82056">
        <ele>893.4375</ele>
        <time>2012-06-07T18:11:31Z</time>
      </trkpt>
      <trkpt lat="45.00248" lon="3.82045">
        <ele>895.08203125</ele>
        <time>2012-06-07T18:11:51Z</time>
      </trkpt>
      <trkpt lat="45.00211" lon="3.8202">
        <ele>896.5859375</ele>
        <time>2012-06-07T18:12:11Z</time>
      </trkpt>
      <trkpt lat="45.00116" lon="3.82007">
        <ele>904.7890625</ele>
        <time>2012-06-07T18:12:31Z</time>
      </trkpt>
      <trkpt lat="45.00054" lon="3.81977">
        <ele>906.89453125</ele>
        <time>2012-06-07T18:12:51Z</time>
      </trkpt>
      <trkpt lat="44.99991" lon="3.82017">
        <ele>911.6171875</ele>
        <time>2012-06-07T18:13:11Z</time>
      </trkpt>
      <trkpt lat="44.99943" lon="3.8203">
        <ele>912.64453125</ele>
        <time>2012-06-07T18:13:31Z</time>
      </trkpt>
      <trkpt lat="44.9983" lon="3.82029">
        <ele>914</ele>
        <time>2012-06-07T18:13:51Z</time>
      </trkpt>
      <trkpt lat="44.99794" lon="3.82044">
        <ele>914</ele>
        <time>2012-06-07T18:14:11Z</time>
      </trkpt>
      <trkpt lat="44.99767" lon="3.82078">
        <ele>914</ele>
        <time>2012-06-07T18:14:31Z</time>
      </trkpt>
      <trkpt lat="44.99755" lon="3.82079">
        <ele>914.02734375</ele>
        <time>2012-06-07T18:14:51Z</time>
      </trkpt>
      <trkpt lat="44.99732" lon="3.82002">
        <ele>914</ele>
        <time>2012-06-07T18:15:11Z</time>
      </trkpt>
      <trkpt lat="44.9965" lon="3.81945">
        <ele>914.9453125</ele>
        <time>2012-06-07T18:15:31Z</time>
      </trkpt>
      <trkpt lat="44.99628" lon="3.81942">
        <ele>915</ele>
        <time>2012-06-07T18:15:51Z</time>
      </trkpt>
      <trkpt lat="44.99648" lon="3.81817">
        <ele>910.7890625</ele>
        <time>2012-06-07T18:16:11Z</time>
      </trkpt>
      <trkpt lat="44.99707" lon="3.81784">
        <ele>908.015625</ele>
        <time>2012-06-07T18:16:31Z</time>
      </trkpt>
      <trkpt lat="44.99704" lon="3.81691">
        <ele>907.70703125</ele>
        <time>2012-06-07T18:16:51Z</time>
      </trkpt>
      <trkpt lat="44.99634" lon="3.81646">
        <ele>908.37109375</ele>
        <time>2012-06-07T18:17:11Z</time>
      </trkpt>
      <trkpt lat="44.99589" lon="3.81532">
        <ele>911.48046875</ele>
        <time>2012-06-07T18:17:31Z</time>
      </trkpt>
      <trkpt lat="44.99584" lon="3.81447">
        <ele>914.5546875</ele>
        <time>2012-06-07T18:17:51Z</time>
      </trkpt>
      <trkpt lat="44.99521" lon="3.81323">
        <ele>920.0078125</ele>
        <time>2012-06-07T18:18:11Z</time>
      </trkpt>
      <trkpt lat="44.99514" lon="3.81272">
        <ele>921.67578125</ele>
        <time>2012-06-07T18:18:31Z</time>
      </trkpt>
      <trkpt lat="44.99427" lon="3.81198">
        <ele>925.51171875</ele>
        <time>2012-06-07T18:18:51Z</time>
      </trkpt>
      <trkpt lat="44.99378" lon="3.81086">
        <ele>930.546875</ele>
        <time>2012-06-07T18:19:11Z</time>
      </trkpt>
      <trkpt lat="44.99368" lon="3.81013">
        <ele>931.8359375</ele>
        <time>2012-06-07T18:19:31Z</time>
      </trkpt>
      <trkpt lat="44.99331" lon="3.80916">
        <ele>930.59765625</ele>
        <time>2012-06-07T18:19:51Z</time>
      </trkpt>
      <trkpt lat="44.99304" lon="3.80786">
        <ele>929.375</ele>
        <time>2012-06-07T18:20:11Z</time>
      </trkpt>
      <trkpt lat="44.99298" lon="3.80665">
        <ele>929.578125</ele>
        <time>2012-06-07T18:20:31Z</time>
      </trkpt>
      <trkpt lat="44.99234" lon="3.80558">
        <ele>931</ele>
        <time>2012-06-07T18:20:51Z</time>
      </trkpt>
      <trkpt lat="44.99164" lon="3.80457">
        <ele>933.0859375</ele>
        <time>2012-06-07T18:21:11Z</time>
      </trkpt>
      <trkpt lat="44.99105" lon="3.80416">
        <ele>934.6796875</ele>
        <time>2012-06-07T18:21:31Z</time>
      </trkpt>
      <trkpt lat="44.9908" lon="3.80357">
        <ele>935.890625</ele>
        <time>2012-06-07T18:21:51Z</time>
      </trkpt>
      <trkpt lat="44.99075" lon="3.80316">
        <ele>936.90234375</ele>
        <time>2012-06-07T18:22:11Z</time>
      </trkpt>
      <trkpt lat="44.99042" lon="3.80252">
        <ele>939.5859375</ele>
        <time>2012-06-07T18:22:31Z</time>
      </trkpt>
      <trkpt lat="44.99044" lon="3.8022">
        <ele>940</ele>
        <time>2012-06-07T18:22:51Z</time>
      </trkpt>
      <trkpt lat="44.99059" lon="3.802">
        <ele>940.4609375</ele>
        <time>2012-06-07T18:23:11Z</time>
      </trkpt>
      <trkpt lat="44.99074" lon="3.80127">
        <ele>941.703125</ele>
        <time>2012-06-07T18:23:31Z</time>
      </trkpt>
      <trkpt lat="44.99073" lon="3.80076">
        <ele>943.30078125</ele>
        <time>2012-06-07T18:23:51Z</time>
      </trkpt>
      <trkpt lat="44.99046" lon="3.80042">
        <ele>945.71484375</ele>
        <time>2012-06-07T18:24:11Z</time>
      </trkpt>
      <trkpt lat="44.99024" lon="3.80039">
        <ele>946</ele>
        <time>2012-06-07T18:24:31Z</time>
      </trkpt>
      <trkpt lat="44.99017" lon="3.7994">
        <ele>948.58203125</ele>
        <time>2012-06-07T18:24:51Z</time>
      </trkpt>
      <trkpt lat="44.98997" lon="3.79842">
        <ele>950</ele>
        <time>2012-06-07T18:25:11Z</time>
      </trkpt>
      <trkpt lat="44.98998" lon="3.79792">
        <ele>950.66796875</ele>
        <time>2012-06-07T18:25:31Z</time>
      </trkpt>
      <trkpt lat="44.98964" lon="3.7968">
        <ele>951.57421875</ele>
        <time>2012-06-07T18:25:51Z</time>
      </trkpt>
      <trkpt lat="44.98949" lon="3.79669">
        <ele>951.3515625</ele>
        <time>2012-06-07T18:26:11Z</time>
      </trkpt>
      <trkpt lat="44.98888" lon="3.79485">
        <ele>955.00390625</ele>
        <time>2012-06-07T18:26:31Z</time>
      </trkpt>
      <trkpt lat="44.98849" lon="3.79394">
        <ele>958.234375</ele>
        <time>2012-06-07T18:26:51Z</time>
      </trkpt>
      <trkpt lat="44.98829" lon="3.79301">
        <ele>962.74609375</ele>
        <time>2012-06-07T18:27:11Z</time>
      </trkpt>
      <trkpt lat="44.9875" lon="3.793">
        <ele>963.609375</ele>
        <time>2012-06-07T18:27:31Z</time>
      </trkpt>
      <trkpt lat="44.98718" lon="3.79283">
        <ele>965.4765625</ele>
        <time>2012-06-07T18:27:51Z</time>
      </trkpt>
      <trkpt lat="44.98609" lon="3.79148">
        <ele>968.9609375</ele>
        <time>2012-06-07T18:28:11Z</time>
      </trkpt>
      <trkpt lat="44.98562" lon="3.79023">
        <ele>972.859375</ele>
        <time>2012-06-07T18:28:31Z</time>
      </trkpt>
      <trkpt lat="44.98543" lon="3.7891">
        <ele>976.9296875</ele>
        <time>2012-06-07T18:28:51Z</time>
      </trkpt>
      <trkpt lat="44.9853" lon="3.78862">
        <ele>978.65625</ele>
        <time>2012-06-07T18:29:11Z</time>
      </trkpt>
      <trkpt lat="44.98557" lon="3.78779">
        <ele>980.828125</ele>
        <time>2012-06-07T18:29:31Z</time>
      </trkpt>
      <trkpt lat="44.98567" lon="3.78726">
        <ele>982.546875</ele>
        <time>2012-06-07T18:29:51Z</time>
      </trkpt>
      <trkpt lat="44.98651" lon="3.78701">
        <ele>983.45703125</ele>
        <time>2012-06-07T18:30:11Z</time>
      </trkpt>
      <trkpt lat="44.98692" lon="3.78666">
        <ele>984.71875</ele>
        <time>2012-06-07T18:30:31Z</time>
      </trkpt>
      <trkpt lat="44.98675" lon="3.7862">
        <ele>986.0078125</ele>
        <time>2012-06-07T18:30:51Z</time>
      </trkpt>
      <trkpt lat="44.98645" lon="3.78566">
        <ele>988.42578125</ele>
        <time>2012-06-07T18:31:11Z</time>
      </trkpt>
      <trkpt lat="44.98633" lon="3.78474">
        <ele>990.83203125</ele>
        <time>2012-06-07T18:31:31Z</time>
      </trkpt>
      <trkpt lat="44.98641" lon="3.7841">
        <ele>991</ele>
        <time>2012-06-07T18:31:51Z</time>
      </trkpt>
      <trkpt lat="44.98611" lon="3.78295">
        <ele>993.08203125</ele>
        <time>2012-06-07T18:32:11Z</time>
      </trkpt>
      <trkpt lat="44.98603" lon="3.78224">
        <ele>995.640625</ele>
        <time>2012-06-07T18:32:31Z</time>
      </trkpt>
      <trkpt lat="44.98515" lon="3.78123">
        <ele>999</ele>
        <time>2012-06-07T18:32:51Z</time>
      </trkpt>
      <trkpt lat="44.98505" lon="3.78013">
        <ele>1002.2421875</ele>
        <time>2012-06-07T18:33:11Z</time>
      </trkpt>
      <trkpt lat="44.98493" lon="3.77956">
        <ele>1003.29296875</ele>
        <time>2012-06-07T18:33:31Z</time>
      </trkpt>
      <trkpt lat="44.98487" lon="3.77851">
        <ele>1005</ele>
        <time>2012-06-07T18:33:51Z</time>
      </trkpt>
      <trkpt lat="44.98473" lon="3.77784">
        <ele>1006.48046875</ele>
        <time>2012-06-07T18:34:11Z</time>
      </trkpt>
      <trkpt lat="44.98217" lon="3.77598">
        <ele>1007.203125</ele>
        <time>2012-06-07T18:34:31Z</time>
      </trkpt>
      <trkpt lat="44.98209" lon="3.77563">
        <ele>1008.44140625</ele>
        <time>2012-06-07T18:34:51Z</time>
      </trkpt>
      <trkpt lat="44.98185" lon="3.77461">
        <ele>1010.1328125</ele>
        <time>2012-06-07T18:35:11Z</time>
      </trkpt>
      <trkpt lat="44.98179" lon="3.77318">
        <ele>1013.27734375</ele>
        <time>2012-06-07T18:35:31Z</time>
      </trkpt>
      <trkpt lat="44.9817" lon="3.77253">
        <ele>1015</ele>
        <time>2012-06-07T18:35:51Z</time>
      </trkpt>
      <trkpt lat="44.98175" lon="3.77117">
        <ele>1018</ele>
        <time>2012-06-07T18:36:11Z</time>
      </trkpt>
      <trkpt lat="44.98194" lon="3.76993">
        <ele>1020.97265625</ele>
        <time>2012-06-07T18:36:31Z</time>
      </trkpt>
      <trkpt lat="44.98187" lon="3.76887">
        <ele>1024.80078125</ele>
        <time>2012-06-07T18:36:51Z</time>
      </trkpt>
      <trkpt lat="44.98202" lon="3.76806">
        <ele>1027.04296875</ele>
        <time>2012-06-07T18:37:11Z</time>
      </trkpt>
      <trkpt lat="44.98213" lon="3.76682">
        <ele>1030.859375</ele>
        <time>2012-06-07T18:37:31Z</time>
      </trkpt>
      <trkpt lat="44.98199" lon="3.76531">
        <ele>1034.10546875</ele>
        <time>2012-06-07T18:37:51Z</time>
      </trkpt>
      <trkpt lat="44.98285" lon="3.76453">
        <ele>1034.51171875</ele>
        <time>2012-06-07T18:38:11Z</time>
      </trkpt>
      <trkpt lat="44.9832" lon="3.76353">
        <ele>1034.84765625</ele>
        <time>2012-06-07T18:38:31Z</time>
      </trkpt>
      <trkpt lat="44.98305" lon="3.76318">
        <ele>1036.54296875</ele>
        <time>2012-06-07T18:38:51Z</time>
      </trkpt>
      <trkpt lat="44.9819" lon="3.76278">
        <ele>1041.3671875</ele>
        <time>2012-06-07T18:39:11Z</time>
      </trkpt>
      <trkpt lat="44.98167" lon="3.76223">
        <ele>1044.04296875</ele>
        <time>2012-06-07T18:39:31Z</time>
      </trkpt>
      <trkpt lat="44.98163" lon="3.76113">
        <ele>1047.1640625</ele>
        <time>2012-06-07T18:39:51Z</time>
      </trkpt>
      <trkpt lat="44.9812" lon="3.76087">
        <ele>1049.625</ele>
        <time>2012-06-07T18:40:11Z</time>
      </trkpt>
      <trkpt lat="44.98115" lon="3.76056">
        <ele>1050.140625</ele>
        <time>2012-06-07T18:40:31Z</time>
      </trkpt>
      <trkpt lat="44.9823" lon="3.75719">
        <ele>1052.9296875</ele>
        <time>2012-06-07T18:40:51Z</time>
      </trkpt>
      <trkpt lat="44.9834" lon="3.75349">
        <ele>1065.50390625</ele>
        <time>2012-06-07T18:41:11Z</time>
      </trkpt>
      <trkpt lat="44.98395" lon="3.75267">
        <ele>1068.27734375</ele>
        <time>2012-06-07T18:41:31Z</time>
      </trkpt>
      <trkpt lat="44.98543" lon="3.74931">
        <ele>1075.23046875</ele>
        <time>2012-06-07T18:41:51Z</time>
      </trkpt>
      <trkpt lat="44.9857" lon="3.74809">
        <ele>1079.9296875</ele>
        <time>2012-06-07T18:42:11Z</time>
      </trkpt>
      <trkpt lat="44.98602" lon="3.7472">
        <ele>1087.4140625</ele>
        <time>2012-06-07T18:42:31Z</time>
      </trkpt>
      <trkpt lat="44.98699" lon="3.7461">
        <ele>1096.69921875</ele>
        <time>2012-06-07T18:42:51Z</time>
      </trkpt>
      <trkpt lat="44.9874" lon="3.74607">
        <ele>1091.33984375</ele>
        <time>2012-06-07T18:43:11Z</time>
      </trkpt>
      <trkpt lat="44.98753" lon="3.74596">
        <ele>1091.5625</ele>
        <time>2012-06-07T18:43:31Z</time>
      </trkpt>
      <trkpt lat="44.98798" lon="3.74617">
        <ele>1086.45703125</ele>
        <time>2012-06-07T18:43:51Z</time>
      </trkpt>
      <trkpt lat="44.98864" lon="3.74667">
        <ele>1084.73828125</ele>
        <time>2012-06-07T18:44:11Z</time>
      </trkpt>
      <trkpt lat="44.989" lon="3.74597">
        <ele>1090.28125</ele>
        <time>2012-06-07T18:44:31Z</time>
      </trkpt>
      <trkpt lat="44.98955" lon="3.74522">
        <ele>1091.0703125</ele>
        <time>2012-06-07T18:44:51Z</time>
      </trkpt>
      <trkpt lat="44.98983" lon="3.74426">
        <ele>1095.5546875</ele>
        <time>2012-06-07T18:45:11Z</time>
      </trkpt>
      <trkpt lat="44.99029" lon="3.74381">
        <ele>1100.54296875</ele>
        <time>2012-06-07T18:45:31Z</time>
      </trkpt>
      <trkpt lat="44.99095" lon="3.74276">
        <ele>1109.70703125</ele>
        <time>2012-06-07T18:45:51Z</time>
      </trkpt>
      <trkpt lat="44.99043" lon="3.74242">
        <ele>1110.14453125</ele>
        <time>2012-06-07T18:46:11Z</time>
      </trkpt>
      <trkpt lat="44.98976" lon="3.74191">
        <ele>1112.37109375</ele>
        <time>2012-06-07T18:46:31Z</time>
      </trkpt>
      <trkpt lat="44.98991" lon="3.74142">
        <ele>1117.16015625</ele>
        <time>2012-06-07T18:46:51Z</time>
      </trkpt>
      <trkpt lat="44.99069" lon="3.74051">
        <ele>1121.7578125</ele>
        <time>2012-06-07T18:47:11Z</time>
      </trkpt>
      <trkpt lat="44.99096" lon="3.73972">
        <ele>1122.6953125</ele>
        <time>2012-06-07T18:47:31Z</time>
      </trkpt>
      <trkpt lat="44.99148" lon="3.73887">
        <ele>1120.109375</ele>
        <time>2012-06-07T18:47:51Z</time>
      </trkpt>
      <trkpt lat="44.99198" lon="3.73757">
        <ele>1119.17578125</ele>
        <time>2012-06-07T18:48:11Z</time>
      </trkpt>
      <trkpt lat="44.99196" lon="3.73724">
        <ele>1119.26171875</ele>
        <time>2012-06-07T18:48:31Z</time>
      </trkpt>
      <trkpt lat="44.99223" lon="3.73631">
        <ele>1118.57421875</ele>
        <time>2012-06-07T18:48:51Z</time>
      </trkpt>
      <trkpt lat="44.99313" lon="3.73433">
        <ele>1114.26171875</ele>
        <time>2012-06-07T18:49:11Z</time>
      </trkpt>
      <trkpt lat="44.99341" lon="3.73405">
        <ele>1115.0078125</ele>
        <time>2012-06-07T18:49:31Z</time>
      </trkpt>
      <trkpt lat="44.99365" lon="3.73355">
        <ele>1115.828125</ele>
        <time>2012-06-07T18:49:51Z</time>
      </trkpt>
      <trkpt lat="44.99334" lon="3.73283">
        <ele>1116.1796875</ele>
        <time>2012-06-07T18:50:11Z</time>
      </trkpt>
      <trkpt lat="44.99319" lon="3.73226">
        <ele>1116.94140625</ele>
        <time>2012-06-07T18:50:31Z</time>
      </trkpt>
      <trkpt lat="44.99382" lon="3.73205">
        <ele>1117.4453125</ele>
        <time>2012-06-07T18:50:51Z</time>
      </trkpt>
      <trkpt lat="44.99416" lon="3.73177">
        <ele>1119.48046875</ele>
        <time>2012-06-07T18:51:11Z</time>
      </trkpt>
      <trkpt lat="44.99558" lon="3.7293">
        <ele>1139.19921875</ele>
        <time>2012-06-07T18:51:31Z</time>
      </trkpt>
      <trkpt lat="44.9962" lon="3.7289">
        <ele>1148.8125</ele>
        <time>2012-06-07T18:51:51Z</time>
      </trkpt>
      <trkpt lat="44.99678" lon="3.72777">
        <ele>1162.27734375</ele>
        <time>2012-06-07T18:52:11Z</time>
      </trkpt>
      <trkpt lat="44.99688" lon="3.72733">
        <ele>1166.203125</ele>
        <time>2012-06-07T18:52:31Z</time>
      </trkpt>
      <trkpt lat="44.99676" lon="3.72653">
        <ele>1170.78515625</ele>
        <time>2012-06-07T18:52:51Z</time>
      </trkpt>
      <trkpt lat="44.99662" lon="3.72594">
        <ele>1174.7109375</ele>
        <time>2012-06-07T18:53:11Z</time>
      </trkpt>
      <trkpt lat="44.99721" lon="3.72519">
        <ele>1186.9765625</ele>
        <time>2012-06-07T18:53:31Z</time>
      </trkpt>
      <trkpt lat="44.99748" lon="3.72508">
        <ele>1191.56640625</ele>
        <time>2012-06-07T18:53:51Z</time>
      </trkpt>
      <trkpt lat="44.99792" lon="3.72438">
        <ele>1201.9140625</ele>
        <time>2012-06-07T18:54:11Z</time>
      </trkpt>
      <trkpt lat="44.99803" lon="3.72323">
        <ele>1208.390625</ele>
        <time>2012-06-07T18:54:31Z</time>
      </trkpt>
      <trkpt lat="44.99795" lon="3.72277">
        <ele>1209.28125</ele>
        <time>2012-06-07T18:54:51Z</time>
      </trkpt>
      <trkpt lat="44.9977" lon="3.72227">
        <ele>1210.859375</ele>
        <time>2012-06-07T18:55:11Z</time>
      </trkpt>
      <trkpt lat="44.99773" lon="3.72149">
        <ele>1210.52734375</ele>
        <time>2012-06-07T18:55:31Z</time>
      </trkpt>
      <trkpt lat="44.99844" lon="3.71981">
        <ele>1208.0859375</ele>
        <time>2012-06-07T18:55:51Z</time>
      </trkpt>
      <trkpt lat="44.99792" lon="3.7191">
        <ele>1208</ele>
        <time>2012-06-07T18:56:11Z</time>
      </trkpt>
      <trkpt lat="44.99762" lon="3.71844">
        <ele>1207</ele>
        <time>2012-06-07T18:56:31Z</time>
      </trkpt>
      <trkpt lat="44.99745" lon="3.71759">
        <ele>1206.4765625</ele>
        <time>2012-06-07T18:56:51Z</time>
      </trkpt>
      <trkpt lat="44.99751" lon="3.71686">
        <ele>1205</ele>
        <time>2012-06-07T18:57:11Z</time>
      </trkpt>
      <trkpt lat="44.9959" lon="3.71628">
        <ele>1204.828125</ele>
        <time>2012-06-07T18:57:31Z</time>
      </trkpt>
      <trkpt lat="44.99546" lon="3.7154">
        <ele>1203.11328125</ele>
        <time>2012-06-07T18:57:51Z</time>
      </trkpt>
      <trkpt lat="44.99496" lon="3.71368">
        <ele>1190.30859375</ele>
        <time>2012-06-07T18:58:11Z</time>
      </trkpt>
      <trkpt lat="44.99474" lon="3.71251">
        <ele>1172.4453125</ele>
        <time>2012-06-07T18:58:31Z</time>
      </trkpt>
      <trkpt lat="44.99423" lon="3.71096">
        <ele>1163.421875</ele>
        <time>2012-06-07T18:58:51Z</time>
      </trkpt>
      <trkpt lat="44.99346" lon="3.70978">
        <ele>1153.46484375</ele>
        <time>2012-06-07T18:59:11Z</time>
      </trkpt>
      <trkpt lat="44.99298" lon="3.70877">
        <ele>1148.671875</ele>
        <time>2012-06-07T18:59:31Z</time>
      </trkpt>
      <trkpt lat="44.99205" lon="3.70754">
        <ele>1136.875</ele>
        <time>2012-06-07T18:59:51Z</time>
      </trkpt>
      <trkpt lat="44.99118" lon="3.70676">
        <ele>1127.5</ele>
        <time>2012-06-07T19:00:11Z</time>
      </trkpt>
      <trkpt lat="44.9909" lon="3.70609">
        <ele>1125.1875</ele>
        <time>2012-06-07T19:00:31Z</time>
      </trkpt>
      <trkpt lat="44.99071" lon="3.70463">
        <ele>1112.94140625</ele>
        <time>2012-06-07T19:00:51Z</time>
      </trkpt>
      <trkpt lat="44.99037" lon="3.70345">
        <ele>1104.59375</ele>
        <time>2012-06-07T19:01:11Z</time>
      </trkpt>
      <trkpt lat="44.99052" lon="3.70256">
        <ele>1095.2734375</ele>
        <time>2012-06-07T19:01:31Z</time>
      </trkpt>
      <trkpt lat="44.99016" lon="3.70182">
        <ele>1090.5703125</ele>
        <time>2012-06-07T19:01:51Z</time>
      </trkpt>
      <trkpt lat="44.98934" lon="3.69995">
        <ele>1075.87109375</ele>
        <time>2012-06-07T19:02:11Z</time>
      </trkpt>
      <trkpt lat="44.9885" lon="3.69873">
        <ele>1062.9609375</ele>
        <time>2012-06-07T19:02:31Z</time>
      </trkpt>
      <trkpt lat="44.98789" lon="3.69824">
        <ele>1056.02734375</ele>
        <time>2012-06-07T19:02:51Z</time>
      </trkpt>
      <trkpt lat="44.98777" lon="3.69806">
        <ele>1054.11328125</ele>
        <time>2012-06-07T19:03:11Z</time>
      </trkpt>
      <trkpt lat="44.98783" lon="3.69665">
        <ele>1050.7890625</ele>
        <time>2012-06-07T19:03:31Z</time>
      </trkpt>
      <trkpt lat="44.98785" lon="3.69519">
        <ele>1041.515625</ele>
        <time>2012-06-07T19:03:51Z</time>
      </trkpt>
      <trkpt lat="44.98747" lon="3.69401">
        <ele>1030.00390625</ele>
        <time>2012-06-07T19:04:11Z</time>
      </trkpt>
      <trkpt lat="44.98746" lon="3.69332">
        <ele>1027.6640625</ele>
        <time>2012-06-07T19:04:31Z</time>
      </trkpt>
      <trkpt lat="44.98736" lon="3.69334">
        <ele>1026.625</ele>
        <time>2012-06-07T19:04:51Z</time>
      </trkpt>
      <trkpt lat="44.98724" lon="3.69272">
        <ele>1022.9375</ele>
        <time>2012-06-07T19:05:11Z</time>
      </trkpt>
      <trkpt lat="44.98719" lon="3.69184">
        <ele>1021.6484375</ele>
        <time>2012-06-07T19:05:31Z</time>
      </trkpt>
      <trkpt lat="44.98729" lon="3.69115">
        <ele>1021.671875</ele>
        <time>2012-06-07T19:05:51Z</time>
      </trkpt>
      <trkpt lat="44.98733" lon="3.68835">
        <ele>1013.4375</ele>
        <time>2012-06-07T19:06:11Z</time>
      </trkpt>
      <trkpt lat="44.98727" lon="3.68781">
        <ele>1010.90234375</ele>
        <time>2012-06-07T19:06:31Z</time>
      </trkpt>
      <trkpt lat="44.98745" lon="3.68722">
        <ele>1008.125</ele>
        <time>2012-06-07T19:06:51Z</time>
      </trkpt>
      <trkpt lat="44.98778" lon="3.68682">
        <ele>1003.55859375</ele>
        <time>2012-06-07T19:07:11Z</time>
      </trkpt>
      <trkpt lat="44.9881" lon="3.68621">
        <ele>997.48046875</ele>
        <time>2012-06-07T19:07:31Z</time>
      </trkpt>
      <trkpt lat="44.9892" lon="3.68524">
        <ele>974.6640625</ele>
        <time>2012-06-07T19:07:51Z</time>
      </trkpt>
      <trkpt lat="44.98969" lon="3.68515">
        <ele>966.78125</ele>
        <time>2012-06-07T19:08:11Z</time>
      </trkpt>
      <trkpt lat="44.99023" lon="3.68484">
        <ele>953.96484375</ele>
        <time>2012-06-07T19:08:31Z</time>
      </trkpt>
      <trkpt lat="44.99051" lon="3.68487">
        <ele>949.35546875</ele>
        <time>2012-06-07T19:08:51Z</time>
      </trkpt>
      <trkpt lat="44.99094" lon="3.68463">
        <ele>935.296875</ele>
        <time>2012-06-07T19:09:11Z</time>
      </trkpt>
      <trkpt lat="44.9915" lon="3.68407">
        <ele>906.14453125</ele>
        <time>2012-06-07T19:09:31Z</time>
      </trkpt>
      <trkpt lat="44.99177" lon="3.68416">
        <ele>904.37890625</ele>
        <time>2012-06-07T19:09:51Z</time>
      </trkpt>
      <trkpt lat="44.99271" lon="3.68384">
        <ele>892.35546875</ele>
        <time>2012-06-07T19:10:11Z</time>
      </trkpt>
      <trkpt lat="44.99278" lon="3.68289">
        <ele>876.625</ele>
        <time>2012-06-07T19:10:31Z</time>
      </trkpt>
      <trkpt lat="44.99208" lon="3.68278">
        <ele>870.09375</ele>
        <time>2012-06-07T19:10:51Z</time>
      </trkpt>
      <trkpt lat="44.99197" lon="3.68255">
        <ele>872.8046875</ele>
        <time>2012-06-07T19:11:11Z</time>
      </trkpt>
      <trkpt lat="44.99126" lon="3.68198">
        <ele>879.0390625</ele>
        <time>2012-06-07T19:11:31Z</time>
      </trkpt>
      <trkpt lat="44.99072" lon="3.68163">
        <ele>874.5390625</ele>
        <time>2012-06-07T19:11:51Z</time>
      </trkpt>
      <trkpt lat="44.99023" lon="3.68076">
        <ele>875.91015625</ele>
        <time>2012-06-07T19:12:11Z</time>
      </trkpt>
      <trkpt lat="44.98947" lon="3.67974">
        <ele>870.73046875</ele>
        <time>2012-06-07T19:12:31Z</time>
      </trkpt>
      <trkpt lat="44.98941" lon="3.67946">
        <ele>872.3203125</ele>
        <time>2012-06-07T19:12:51Z</time>
      </trkpt>
      <trkpt lat="44.98965" lon="3.679">
        <ele>869.9140625</ele>
        <time>2012-06-07T19:13:11Z</time>
      </trkpt>
      <trkpt lat="44.9898" lon="3.67907">
        <ele>870.87109375</ele>
        <time>2012-06-07T19:13:31Z</time>
      </trkpt>
      <trkpt lat="44.99004" lon="3.67895">
        <ele>871.0546875</ele>
        <time>2012-06-07T19:13:51Z</time>
      </trkpt>
      <trkpt lat="44.99019" lon="3.67856">
        <ele>868.0625</ele>
        <time>2012-06-07T19:14:11Z</time>
      </trkpt>
      <trkpt lat="44.9911" lon="3.67802">
        <ele>884.61328125</ele>
        <time>2012-06-07T19:14:31Z</time>
      </trkpt>
      <trkpt lat="44.99127" lon="3.6778">
        <ele>889.8046875</ele>
        <time>2012-06-07T19:14:51Z</time>
      </trkpt>
      <trkpt lat="44.99122" lon="3.67751">
        <ele>894.5703125</ele>
        <time>2012-06-07T19:15:11Z</time>
      </trkpt>
      <trkpt lat="44.99071" lon="3.67723">
        <ele>894.82421875</ele>
        <time>2012-06-07T19:15:31Z</time>
      </trkpt>
      <trkpt lat="44.99053" lon="3.67734">
        <ele>889.55078125</ele>
        <time>2012-06-07T19:15:51Z</time>
      </trkpt>
      <trkpt lat="44.99042" lon="3.67724">
        <ele>888.6796875</ele>
        <time>2012-06-07T19:16:11Z</time>
      </trkpt>
      <trkpt lat="44.99001" lon="3.67594">
        <ele>880.17578125</ele>
        <time>2012-06-07T19:16:31Z</time>
      </trkpt>
      <trkpt lat="44.98988" lon="3.67501">
        <ele>882.515625</ele>
        <time>2012-06-07T19:16:51Z</time>
      </trkpt>
      <trkpt lat="44.98925" lon="3.6741">
        <ele>884.49609375</ele>
        <time>2012-06-07T19:17:11Z</time>
      </trkpt>
      <trkpt lat="44.98902" lon="3.67406">
        <ele>882.99609375</ele>
        <time>2012-06-07T19:17:31Z</time>
      </trkpt>
      <trkpt lat="44.98887" lon="3.6735">
        <ele>888.7421875</ele>
        <time>2012-06-07T19:17:51Z</time>
      </trkpt>
      <trkpt lat="44.98887" lon="3.67203">
        <ele>874.953125</ele>
        <time>2012-06-07T19:18:11Z</time>
      </trkpt>
      <trkpt lat="44.9895" lon="3.67042">
        <ele>865.2421875</ele>
        <time>2012-06-07T19:18:31Z</time>
      </trkpt>
      <trkpt lat="44.98944" lon="3.67035">
        <ele>866.67578125</ele>
        <time>2012-06-07T19:18:51Z</time>
      </trkpt>
      <trkpt lat="44.98879" lon="3.67041">
        <ele>863.90234375</ele>
        <time>2012-06-07T19:19:11Z</time>
      </trkpt>
      <trkpt lat="44.98821" lon="3.66943">
        <ele>879.703125</ele>
        <time>2012-06-07T19:19:31Z</time>
      </trkpt>
      <trkpt lat="44.98841" lon="3.66914">
        <ele>886.109375</ele>
        <time>2012-06-07T19:19:51Z</time>
      </trkpt>
      <trkpt lat="44.98842" lon="3.66821">
        <ele>897.56640625</ele>
        <time>2012-06-07T19:20:11Z</time>
      </trkpt>
      <trkpt lat="44.98802" lon="3.6677">
        <ele>901.17578125</ele>
        <time>2012-06-07T19:20:31Z</time>
      </trkpt>
      <trkpt lat="44.98776" lon="3.66726">
        <ele>903.40234375</ele>
        <time>2012-06-07T19:20:51Z</time>
      </trkpt>
      <trkpt lat="44.98779" lon="3.6669">
        <ele>907.828125</ele>
        <time>2012-06-07T19:21:11Z</time>
      </trkpt>
      <trkpt lat="44.98789" lon="3.6664">
        <ele>913.1796875</ele>
        <time>2012-06-07T19:21:31Z</time>
      </trkpt>
      <trkpt lat="44.98772" lon="3.66571">
        <ele>915.3359375</ele>
        <time>2012-06-07T19:21:51Z</time>
      </trkpt>
      <trkpt lat="44.98743" lon="3.66486">
        <ele>922.34765625</ele>
        <time>2012-06-07T19:22:11Z</time>
      </trkpt>
      <trkpt lat="44.98696" lon="3.6645">
        <ele>925.30859375</ele>
        <time>2012-06-07T19:22:31Z</time>
      </trkpt>
      <trkpt lat="44.98681" lon="3.6645">
        <ele>924.76171875</ele>
        <time>2012-06-07T19:22:51Z</time>
      </trkpt>
      <trkpt lat="44.98607" lon="3.66409">
        <ele>936.3203125</ele>
        <time>2012-06-07T19:23:11Z</time>
      </trkpt>
      <trkpt lat="44.9859" lon="3.66411">
        <ele>936.5546875</ele>
        <time>2012-06-07T19:23:31Z</time>
      </trkpt>
      <trkpt lat="44.98573" lon="3.66399">
        <ele>937.66015625</ele>
        <time>2012-06-07T19:23:51Z</time>
      </trkpt>
      <trkpt lat="44.98573" lon="3.66339">
        <ele>938.5234375</ele>
        <time>2012-06-07T19:24:11Z</time>
      </trkpt>
      <trkpt lat="44.98561" lon="3.66248">
        <ele>931.4609375</ele>
        <time>2012-06-07T19:24:31Z</time>
      </trkpt>
      <trkpt lat="44.98618" lon="3.66165">
        <ele>930.375</ele>
        <time>2012-06-07T19:24:51Z</time>
      </trkpt>
      <trkpt lat="44.98635" lon="3.66103">
        <ele>932.0078125</ele>
        <time>2012-06-07T19:25:11Z</time>
      </trkpt>
      <trkpt lat="44.98633" lon="3.65894">
        <ele>933.25</ele>
        <time>2012-06-07T19:25:31Z</time>
      </trkpt>
      <trkpt lat="44.98607" lon="3.65857">
        <ele>936.25</ele>
        <time>2012-06-07T19:25:51Z</time>
      </trkpt>
      <trkpt lat="44.9851" lon="3.65784">
        <ele>929.328125</ele>
        <time>2012-06-07T19:26:11Z</time>
      </trkpt>
      <trkpt lat="44.98489" lon="3.6575">
        <ele>925.96484375</ele>
        <time>2012-06-07T19:26:31Z</time>
      </trkpt>
      <trkpt lat="44.98499" lon="3.65642">
        <ele>932.28125</ele>
        <time>2012-06-07T19:26:51Z</time>
      </trkpt>
      <trkpt lat="44.98489" lon="3.6557">
        <ele>930.15234375</ele>
        <time>2012-06-07T19:27:11Z</time>
      </trkpt>
      <trkpt lat="44.9853" lon="3.65398">
        <ele>925.9140625</ele>
        <time>2012-06-07T19:27:31Z</time>
      </trkpt>
      <trkpt lat="44.98561" lon="3.65355">
        <ele>927.95703125</ele>
        <time>2012-06-07T19:27:51Z</time>
      </trkpt>
      <trkpt lat="44.98676" lon="3.65248">
        <ele>934.11328125</ele>
        <time>2012-06-07T19:28:11Z</time>
      </trkpt>
      <trkpt lat="44.98677" lon="3.65212">
        <ele>939.0390625</ele>
        <time>2012-06-07T19:28:31Z</time>
      </trkpt>
      <trkpt lat="44.98626" lon="3.65124">
        <ele>926.75</ele>
        <time>2012-06-07T19:28:51Z</time>
      </trkpt>
      <trkpt lat="44.9862" lon="3.65061">
        <ele>924.046875</ele>
        <time>2012-06-07T19:29:11Z</time>
      </trkpt>
      <trkpt lat="44.98636" lon="3.64943">
        <ele>931.1796875</ele>
        <time>2012-06-07T19:29:31Z</time>
      </trkpt>
      <trkpt lat="44.98634" lon="3.64906">
        <ele>932.375</ele>
        <time>2012-06-07T19:29:51Z</time>
      </trkpt>
      <trkpt lat="44.98621" lon="3.64838">
        <ele>932.90234375</ele>
        <time>2012-06-07T19:30:11Z</time>
      </trkpt>
      <trkpt lat="44.98617" lon="3.64785">
        <ele>932.7265625</ele>
        <time>2012-06-07T19:30:31Z</time>
      </trkpt>
      <trkpt lat="44.98583" lon="3.64792">
        <ele>928.91796875</ele>
        <time>2012-06-07T19:30:51Z</time>
      </trkpt>
      <trkpt lat="44.98511" lon="3.64738">
        <ele>913.34765625</ele>
        <time>2012-06-07T19:31:11Z</time>
      </trkpt>
      <trkpt lat="44.98482" lon="3.64748">
        <ele>906.86328125</ele>
        <time>2012-06-07T19:31:31Z</time>
      </trkpt>
      <trkpt lat="44.98409" lon="3.64752">
        <ele>889.99609375</ele>
        <time>2012-06-07T19:31:51Z</time>
      </trkpt>
      <trkpt lat="44.9835" lon="3.64748">
        <ele>881.6796875</ele>
        <time>2012-06-07T19:32:11Z</time>
      </trkpt>
      <trkpt lat="44.98333" lon="3.64739">
        <ele>876.56640625</ele>
        <time>2012-06-07T19:32:31Z</time>
      </trkpt>
      <trkpt lat="44.98318" lon="3.6475">
        <ele>875.72265625</ele>
        <time>2012-06-07T19:32:51Z</time>
      </trkpt>
      <trkpt lat="44.9827" lon="3.64746">
        <ele>862.23828125</ele>
        <time>2012-06-07T19:33:11Z</time>
      </trkpt>
      <trkpt lat="44.98186" lon="3.64776">
        <ele>836.953125</ele>
        <time>2012-06-07T19:33:31Z</time>
      </trkpt>
      <trkpt lat="44.98139" lon="3.64747">
        <ele>818.36328125</ele>
        <time>2012-06-07T19:33:51Z</time>
      </trkpt>
      <trkpt lat="44.98108" lon="3.64741">
        <ele>809.10546875</ele>
        <time>2012-06-07T19:34:11Z</time>
      </trkpt>
      <trkpt lat="44.98033" lon="3.64783">
        <ele>806.87109375</ele>
        <time>2012-06-07T19:34:31Z</time>
      </trkpt>
      <trkpt lat="44.97995" lon="3.64775">
        <ele>802.8984375</ele>
        <time>2012-06-07T19:34:51Z</time>
      </trkpt>
      <trkpt lat="44.97882" lon="3.64773">
        <ele>780.9765625</ele>
        <time>2012-06-07T19:35:11Z</time>
      </trkpt>
      <trkpt lat="44.9784" lon="3.64781">
        <ele>770.50390625</ele>
        <time>2012-06-07T19:35:31Z</time>
      </trkpt>
      <trkpt lat="44.97821" lon="3.64771">
        <ele>765.55078125</ele>
        <time>2012-06-07T19:35:51Z</time>
      </trkpt>
      <trkpt lat="44.97794" lon="3.64784">
        <ele>758.8046875</ele>
        <time>2012-06-07T19:36:11Z</time>
      </trkpt>
      <trkpt lat="44.97833" lon="3.64875">
        <ele>760.3046875</ele>
        <time>2012-06-07T19:36:31Z</time>
      </trkpt>
      <trkpt lat="44.97872" lon="3.64925">
        <ele>762.41796875</ele>
        <time>2012-06-07T19:36:51Z</time>
      </trkpt>
      <trkpt lat="44.97878" lon="3.64945">
        <ele>761.203125</ele>
        <time>2012-06-07T19:37:11Z</time>
      </trkpt>
      <trkpt lat="44.97904" lon="3.6495">
        <ele>765.140625</ele>
        <time>2012-06-07T19:37:31Z</time>
      </trkpt>
      <trkpt lat="44.9792" lon="3.65116">
        <ele>777.53125</ele>
        <time>2012-06-07T19:37:51Z</time>
      </trkpt>
      <trkpt lat="44.97855" lon="3.65293">
        <ele>784.875</ele>
        <time>2012-06-07T19:38:11Z</time>
      </trkpt>
      <trkpt lat="44.97832" lon="3.65328">
        <ele>784.48046875</ele>
        <time>2012-06-07T19:38:31Z</time>
      </trkpt>
      <trkpt lat="44.97807" lon="3.65344">
        <ele>782.6328125</ele>
        <time>2012-06-07T19:38:51Z</time>
      </trkpt>
      <trkpt lat="44.97769" lon="3.65396">
        <ele>781.3125</ele>
        <time>2012-06-07T19:39:11Z</time>
      </trkpt>
      <trkpt lat="44.97745" lon="3.65414">
        <ele>779.87890625</ele>
        <time>2012-06-07T19:39:31Z</time>
      </trkpt>
      <trkpt lat="44.97684" lon="3.65571">
        <ele>776.28125</ele>
        <time>2012-06-07T19:39:51Z</time>
      </trkpt>
      <trkpt lat="44.97699" lon="3.65632">
        <ele>776.00390625</ele>
        <time>2012-06-07T19:40:11Z</time>
      </trkpt>
      <trkpt lat="44.97485" lon="3.65506">
        <ele>766.13671875</ele>
        <time>2012-06-07T19:40:31Z</time>
      </trkpt>
      <trkpt lat="44.97451" lon="3.65536">
        <ele>764.8046875</ele>
        <time>2012-06-07T19:40:51Z</time>
      </trkpt>
      <trkpt lat="44.97417" lon="3.65595">
        <ele>763.67578125</ele>
        <time>2012-06-07T19:41:11Z</time>
      </trkpt>
      <trkpt lat="44.97264" lon="3.65622">
        <ele>750.0859375</ele>
        <time>2012-06-07T19:41:31Z</time>
      </trkpt>
      <trkpt lat="44.97248" lon="3.65589">
        <ele>744.484375</ele>
        <time>2012-06-07T19:41:51Z</time>
      </trkpt>
      <trkpt lat="44.97231" lon="3.65507">
        <ele>734.37890625</ele>
        <time>2012-06-07T19:42:11Z</time>
      </trkpt>
      <trkpt lat="44.97215" lon="3.65463">
        <ele>725.61328125</ele>
        <time>2012-06-07T19:42:31Z</time>
      </trkpt>
      <trkpt lat="44.97205" lon="3.65385">
        <ele>721.265625</ele>
        <time>2012-06-07T19:42:51Z</time>
      </trkpt>
      <trkpt lat="44.97194" lon="3.65418">
        <ele>716.13671875</ele>
        <time>2012-06-07T19:43:11Z</time>
      </trkpt>
      <trkpt lat="44.97184" lon="3.65401">
        <ele>711.4765625</ele>
        <time>2012-06-07T19:43:31Z</time>
      </trkpt>
      <trkpt lat="44.97167" lon="3.65272">
        <ele>701.00390625</ele>
        <time>2012-06-07T19:43:51Z</time>
      </trkpt>
      <trkpt lat="44.97153" lon="3.65341">
        <ele>695.41015625</ele>
        <time>2012-06-07T19:44:11Z</time>
      </trkpt>
      <trkpt lat="44.97107" lon="3.6538">
        <ele>675.578125</ele>
        <time>2012-06-07T19:44:31Z</time>
      </trkpt>
      <trkpt lat="44.97095" lon="3.65348">
        <ele>669.35546875</ele>
        <time>2012-06-07T19:44:51Z</time>
      </trkpt>
      <trkpt lat="44.97102" lon="3.65294">
        <ele>669.3984375</ele>
        <time>2012-06-07T19:45:11Z</time>
      </trkpt>
      <trkpt lat="44.97067" lon="3.65174">
        <ele>644.015625</ele>
        <time>2012-06-07T19:45:31Z</time>
      </trkpt>
      <trkpt lat="44.9706" lon="3.6499">
        <ele>635.765625</ele>
        <time>2012-06-07T19:45:51Z</time>
      </trkpt>
      <trkpt lat="44.9703" lon="3.64873">
        <ele>636.0078125</ele>
        <time>2012-06-07T19:46:11Z</time>
      </trkpt>
      <trkpt lat="44.9695" lon="3.64769">
        <ele>634.37109375</ele>
        <time>2012-06-07T19:46:31Z</time>
      </trkpt>
      <trkpt lat="44.96923" lon="3.64757">
        <ele>628.1015625</ele>
        <time>2012-06-07T19:46:51Z</time>
      </trkpt>
      <trkpt lat="44.96847" lon="3.64787">
        <ele>608.6328125</ele>
        <time>2012-06-07T19:47:11Z</time>
      </trkpt>
      <trkpt lat="44.96829" lon="3.6479">
        <ele>606.65234375</ele>
        <time>2012-06-07T19:47:31Z</time>
      </trkpt>
      <trkpt lat="44.96819" lon="3.64769">
        <ele>604.40234375</ele>
        <time>2012-06-07T19:47:51Z</time>
      </trkpt>
      <trkpt lat="44.96832" lon="3.64728">
        <ele>601.046875</ele>
        <time>2012-06-07T19:48:11Z</time>
      </trkpt>
      <trkpt lat="44.96878" lon="3.64654">
        <ele>599.68359375</ele>
        <time>2012-06-07T19:48:31Z</time>
      </trkpt>
      <trkpt lat="44.96925" lon="3.64555">
        <ele>601.68359375</ele>
        <time>2012-06-07T19:48:51Z</time>
      </trkpt>
      <trkpt lat="44.96861" lon="3.64481">
        <ele>605.9140625</ele>
        <time>2012-06-07T19:49:11Z</time>
      </trkpt>
      <trkpt lat="44.96864" lon="3.64438">
        <ele>606.25390625</ele>
        <time>2012-06-07T19:49:31Z</time>
      </trkpt>
      <trkpt lat="44.96905" lon="3.64308">
        <ele>604.0546875</ele>
        <time>2012-06-07T19:49:51Z</time>
      </trkpt>
      <trkpt lat="44.96887" lon="3.64224">
        <ele>608.89453125</ele>
        <time>2012-06-07T19:50:11Z</time>
      </trkpt>
      <trkpt lat="44.96889" lon="3.64205">
        <ele>608.828125</ele>
        <time>2012-06-07T19:50:31Z</time>
      </trkpt>
      <trkpt lat="44.9688" lon="3.64163">
        <ele>614.75390625</ele>
        <time>2012-06-07T19:50:51Z</time>
      </trkpt>
      <trkpt lat="44.96893" lon="3.64146">
        <ele>610.32421875</ele>
        <time>2012-06-07T19:51:11Z</time>
      </trkpt>
      <trkpt lat="44.96978" lon="3.64129">
        <ele>606.38671875</ele>
        <time>2012-06-07T19:51:31Z</time>
      </trkpt>
      <trkpt lat="44.97076" lon="3.64028">
        <ele>630.34765625</ele>
        <time>2012-06-07T19:51:51Z</time>
      </trkpt>
      <trkpt lat="44.97063" lon="3.64016">
        <ele>636.8125</ele>
        <time>2012-06-07T19:52:11Z</time>
      </trkpt>
      <trkpt lat="44.9699" lon="3.64051">
        <ele>621.38671875</ele>
        <time>2012-06-07T19:52:31Z</time>
      </trkpt>
      <trkpt lat="44.96969" lon="3.64042">
        <ele>614.52734375</ele>
        <time>2012-06-07T19:52:51Z</time>
      </trkpt>
      <trkpt lat="44.96966" lon="3.64011">
        <ele>620.71875</ele>
        <time>2012-06-07T19:53:11Z</time>
      </trkpt>
      <trkpt lat="44.96997" lon="3.63977">
        <ele>648.8046875</ele>
        <time>2012-06-07T19:53:31Z</time>
      </trkpt>
      <trkpt lat="44.97071" lon="3.63954">
        <ele>670.90234375</ele>
        <time>2012-06-07T19:53:51Z</time>
      </trkpt>
      <trkpt lat="44.97104" lon="3.63951">
        <ele>680.1640625</ele>
        <time>2012-06-07T19:54:11Z</time>
      </trkpt>
      <trkpt lat="44.97197" lon="3.63907">
        <ele>695.1640625</ele>
        <time>2012-06-07T19:54:31Z</time>
      </trkpt>
      <trkpt lat="44.97306" lon="3.6393">
        <ele>694.42578125</ele>
        <time>2012-06-07T19:54:51Z</time>
      </trkpt>
      <trkpt lat="44.97322" lon="3.63962">
        <ele>688.52734375</ele>
        <time>2012-06-07T19:55:11Z</time>
      </trkpt>
      <trkpt lat="44.97336" lon="3.63969">
        <ele>692.66015625</ele>
        <time>2012-06-07T19:55:31Z</time>
      </trkpt>
      <trkpt lat="44.97328" lon="3.63909">
        <ele>712.5546875</ele>
        <time>2012-06-07T19:55:51Z</time>
      </trkpt>
      <trkpt lat="44.9731" lon="3.63879">
        <ele>718.96875</ele>
        <time>2012-06-07T19:56:11Z</time>
      </trkpt>
      <trkpt lat="44.97296" lon="3.63871">
        <ele>718.1328125</ele>
        <time>2012-06-07T19:56:31Z</time>
      </trkpt>
      <trkpt lat="44.97276" lon="3.63827">
        <ele>732.95703125</ele>
        <time>2012-06-07T19:56:51Z</time>
      </trkpt>
      <trkpt lat="44.97223" lon="3.63776">
        <ele>739.6484375</ele>
        <time>2012-06-07T19:57:11Z</time>
      </trkpt>
      <trkpt lat="44.97201" lon="3.63788">
        <ele>735.87890625</ele>
        <time>2012-06-07T19:57:31Z</time>
      </trkpt>
      <trkpt lat="44.97194" lon="3.63773">
        <ele>738.05859375</ele>
        <time>2012-06-07T19:57:51Z</time>
      </trkpt>
      <trkpt lat="44.97205" lon="3.63746">
        <ele>741.40625</ele>
        <time>2012-06-07T19:58:11Z</time>
      </trkpt>
      <trkpt lat="44.97239" lon="3.63756">
        <ele>744.3984375</ele>
        <time>2012-06-07T19:58:31Z</time>
      </trkpt>
      <trkpt lat="44.97271" lon="3.63696">
        <ele>752.60546875</ele>
        <time>2012-06-07T19:58:51Z</time>
      </trkpt>
      <trkpt lat="44.97312" lon="3.63557">
        <ele>757.31640625</ele>
        <time>2012-06-07T19:59:11Z</time>
      </trkpt>
      <trkpt lat="44.97327" lon="3.63472">
        <ele>762.96875</ele>
        <time>2012-06-07T19:59:31Z</time>
      </trkpt>
      <trkpt lat="44.97327" lon="3.63435">
        <ele>764.66796875</ele>
        <time>2012-06-07T19:59:51Z</time>
      </trkpt>
      <trkpt lat="44.97342" lon="3.63381">
        <ele>772.62890625</ele>
        <time>2012-06-07T20:00:11Z</time>
      </trkpt>
      <trkpt lat="44.97335" lon="3.63353">
        <ele>774.16796875</ele>
        <time>2012-06-07T20:00:31Z</time>
      </trkpt>
      <trkpt lat="44.97347" lon="3.63345">
        <ele>778.1171875</ele>
        <time>2012-06-07T20:00:51Z</time>
      </trkpt>
      <trkpt lat="44.97372" lon="3.63353">
        <ele>781.41796875</ele>
        <time>2012-06-07T20:01:11Z</time>
      </trkpt>
      <trkpt lat="44.97438" lon="3.63293">
        <ele>793.86328125</ele>
        <time>2012-06-07T20:01:31Z</time>
      </trkpt>
      <trkpt lat="44.97479" lon="3.63091">
        <ele>815.9140625</ele>
        <time>2012-06-07T20:01:51Z</time>
      </trkpt>
      <trkpt lat="44.9749" lon="3.63002">
        <ele>826.375</ele>
        <time>2012-06-07T20:02:11Z</time>
      </trkpt>
      <trkpt lat="44.97476" lon="3.62998">
        <ele>832.76171875</ele>
        <time>2012-06-07T20:02:31Z</time>
      </trkpt>
      <trkpt lat="44.97438" lon="3.6309">
        <ele>826.546875</ele>
        <time>2012-06-07T20:02:51Z</time>
      </trkpt>
      <trkpt lat="44.97422" lon="3.63087">
        <ele>829.94921875</ele>
        <time>2012-06-07T20:03:11Z</time>
      </trkpt>
      <trkpt lat="44.97397" lon="3.6299">
        <ele>855.41796875</ele>
        <time>2012-06-07T20:03:31Z</time>
      </trkpt>
      <trkpt lat="44.97323" lon="3.62979">
        <ele>851.80859375</ele>
        <time>2012-06-07T20:03:51Z</time>
      </trkpt>
      <trkpt lat="44.97306" lon="3.62936">
        <ele>860.40625</ele>
        <time>2012-06-07T20:04:11Z</time>
      </trkpt>
      <trkpt lat="44.97335" lon="3.62945">
        <ele>864.4140625</ele>
        <time>2012-06-07T20:04:31Z</time>
      </trkpt>
      <trkpt lat="44.97376" lon="3.62915">
        <ele>874.30078125</ele>
        <time>2012-06-07T20:04:51Z</time>
      </trkpt>
      <trkpt lat="44.97422" lon="3.62774">
        <ele>891.8046875</ele>
        <time>2012-06-07T20:05:11Z</time>
      </trkpt>
      <trkpt lat="44.97415" lon="3.62773">
        <ele>894.92578125</ele>
        <time>2012-06-07T20:05:31Z</time>
      </trkpt>
      <trkpt lat="44.97374" lon="3.62834">
        <ele>894.44921875</ele>
        <time>2012-06-07T20:05:51Z</time>
      </trkpt>
      <trkpt lat="44.97349" lon="3.62855">
        <ele>892.375</ele>
        <time>2012-06-07T20:06:11Z</time>
      </trkpt>
      <trkpt lat="44.97326" lon="3.62846">
        <ele>891.58984375</ele>
        <time>2012-06-07T20:06:31Z</time>
      </trkpt>
      <trkpt lat="44.97353" lon="3.62828">
        <ele>899.2109375</ele>
        <time>2012-06-07T20:06:51Z</time>
      </trkpt>
      <trkpt lat="44.97408" lon="3.62688">
        <ele>911.9296875</ele>
        <time>2012-06-07T20:07:11Z</time>
      </trkpt>
      <trkpt lat="44.97399" lon="3.62684">
        <ele>916.078125</ele>
        <time>2012-06-07T20:07:31Z</time>
      </trkpt>
      <trkpt lat="44.97351" lon="3.62772">
        <ele>913.28515625</ele>
        <time>2012-06-07T20:07:51Z</time>
      </trkpt>
      <trkpt lat="44.97316" lon="3.62783">
        <ele>906.1171875</ele>
        <time>2012-06-07T20:08:11Z</time>
      </trkpt>
      <trkpt lat="44.97293" lon="3.62759">
        <ele>904.8125</ele>
        <time>2012-06-07T20:08:31Z</time>
      </trkpt>
      <trkpt lat="44.97268" lon="3.62617">
        <ele>922.609375</ele>
        <time>2012-06-07T20:08:51Z</time>
      </trkpt>
      <trkpt lat="44.97308" lon="3.62621">
        <ele>931.3515625</ele>
        <time>2012-06-07T20:09:11Z</time>
      </trkpt>
      <trkpt lat="44.97333" lon="3.62609">
        <ele>935.80859375</ele>
        <time>2012-06-07T20:09:31Z</time>
      </trkpt>
      <trkpt lat="44.97341" lon="3.6255">
        <ele>945.18359375</ele>
        <time>2012-06-07T20:09:51Z</time>
      </trkpt>
      <trkpt lat="44.974" lon="3.62404">
        <ele>959.7578125</ele>
        <time>2012-06-07T20:10:11Z</time>
      </trkpt>
      <trkpt lat="44.97409" lon="3.62333">
        <ele>965.24609375</ele>
        <time>2012-06-07T20:10:31Z</time>
      </trkpt>
      <trkpt lat="44.9739" lon="3.62363">
        <ele>965.890625</ele>
        <time>2012-06-07T20:10:51Z</time>
      </trkpt>
      <trkpt lat="44.97327" lon="3.62419">
        <ele>964.31640625</ele>
        <time>2012-06-07T20:11:11Z</time>
      </trkpt>
      <trkpt lat="44.97305" lon="3.62416">
        <ele>962.234375</ele>
        <time>2012-06-07T20:11:31Z</time>
      </trkpt>
      <trkpt lat="44.97291" lon="3.6239">
        <ele>960.796875</ele>
        <time>2012-06-07T20:11:51Z</time>
      </trkpt>
      <trkpt lat="44.97305" lon="3.62329">
        <ele>968.53125</ele>
        <time>2012-06-07T20:12:11Z</time>
      </trkpt>
      <trkpt lat="44.9733" lon="3.623">
        <ele>973.8203125</ele>
        <time>2012-06-07T20:12:31Z</time>
      </trkpt>
      <trkpt lat="44.97358" lon="3.62078">
        <ele>1005.75</ele>
        <time>2012-06-07T20:12:51Z</time>
      </trkpt>
      <trkpt lat="44.9738" lon="3.62016">
        <ele>1012.27734375</ele>
        <time>2012-06-07T20:13:11Z</time>
      </trkpt>
      <trkpt lat="44.97381" lon="3.61957">
        <ele>1018.42578125</ele>
        <time>2012-06-07T20:13:31Z</time>
      </trkpt>
      <trkpt lat="44.9739" lon="3.61926">
        <ele>1021.86328125</ele>
        <time>2012-06-07T20:13:51Z</time>
      </trkpt>
      <trkpt lat="44.97362" lon="3.61863">
        <ele>1021.73046875</ele>
        <time>2012-06-07T20:14:11Z</time>
      </trkpt>
      <trkpt lat="44.97346" lon="3.61774">
        <ele>1021.84765625</ele>
        <time>2012-06-07T20:14:31Z</time>
      </trkpt>
      <trkpt lat="44.97297" lon="3.61702">
        <ele>1022.33984375</ele>
        <time>2012-06-07T20:14:51Z</time>
      </trkpt>
      <trkpt lat="44.9728" lon="3.61636">
        <ele>1022.73046875</ele>
        <time>2012-06-07T20:15:11Z</time>
      </trkpt>
      <trkpt lat="44.97251" lon="3.616">
        <ele>1021.8515625</ele>
        <time>2012-06-07T20:15:31Z</time>
      </trkpt>
      <trkpt lat="44.97228" lon="3.61605">
        <ele>1021.71875</ele>
        <time>2012-06-07T20:15:51Z</time>
      </trkpt>
      <trkpt lat="44.97194" lon="3.61589">
        <ele>1021.12109375</ele>
        <time>2012-06-07T20:16:11Z</time>
      </trkpt>
      <trkpt lat="44.97078" lon="3.6156">
        <ele>1023.61328125</ele>
        <time>2012-06-07T20:16:31Z</time>
      </trkpt>
      <trkpt lat="44.97035" lon="3.61599">
        <ele>1025.6171875</ele>
        <time>2012-06-07T20:16:51Z</time>
      </trkpt>
      <trkpt lat="44.9693" lon="3.61605">
        <ele>1028</ele>
        <time>2012-06-07T20:17:11Z</time>
      </trkpt>
      <trkpt lat="44.96811" lon="3.61598">
        <ele>1029.65625</ele>
        <time>2012-06-07T20:17:31Z</time>
      </trkpt>
      <trkpt lat="44.96736" lon="3.6162">
        <ele>1036.015625</ele>
        <time>2012-06-07T20:17:51Z</time>
      </trkpt>
      <trkpt lat="44.96653" lon="3.61576">
        <ele>1043.58203125</ele>
        <time>2012-06-07T20:18:11Z</time>
      </trkpt>
      <trkpt lat="44.96576" lon="3.61552">
        <ele>1047.265625</ele>
        <time>2012-06-07T20:18:31Z</time>
      </trkpt>
      <trkpt lat="44.96528" lon="3.61521">
        <ele>1046.75390625</ele>
        <time>2012-06-07T20:18:51Z</time>
      </trkpt>
      <trkpt lat="44.96436" lon="3.61482">
        <ele>1050.3359375</ele>
        <time>2012-06-07T20:19:11Z</time>
      </trkpt>
      <trkpt lat="44.96376" lon="3.6144">
        <ele>1054.66015625</ele>
        <time>2012-06-07T20:19:31Z</time>
      </trkpt>
      <trkpt lat="44.96247" lon="3.61435">
        <ele>1059.91015625</ele>
        <time>2012-06-07T20:19:51Z</time>
      </trkpt>
      <trkpt lat="44.96117" lon="3.61321">
        <ele>1054.7578125</ele>
        <time>2012-06-07T20:20:11Z</time>
      </trkpt>
      <trkpt lat="44.96026" lon="3.61283">
        <ele>1054.23046875</ele>
        <time>2012-06-07T20:20:31Z</time>
      </trkpt>
      <trkpt lat="44.96024" lon="3.6124">
        <ele>1057.7890625</ele>
        <time>2012-06-07T20:20:51Z</time>
      </trkpt>
      <trkpt lat="44.95993" lon="3.61182">
        <ele>1061.41796875</ele>
        <time>2012-06-07T20:21:11Z</time>
      </trkpt>
      <trkpt lat="44.95888" lon="3.61116">
        <ele>1064.3125</ele>
        <time>2012-06-07T20:21:31Z</time>
      </trkpt>
      <trkpt lat="44.9584" lon="3.60979">
        <ele>1063.78125</ele>
        <time>2012-06-07T20:21:51Z</time>
      </trkpt>
      <trkpt lat="44.95699" lon="3.60799">
        <ele>1071.03515625</ele>
        <time>2012-06-07T20:22:11Z</time>
      </trkpt>
      <trkpt lat="44.95664" lon="3.60766">
        <ele>1070.94140625</ele>
        <time>2012-06-07T20:22:31Z</time>
      </trkpt>
      <trkpt lat="44.95646" lon="3.60651">
        <ele>1063.9921875</ele>
        <time>2012-06-07T20:22:51Z</time>
      </trkpt>
      <trkpt lat="44.95615" lon="3.60587">
        <ele>1061.54296875</ele>
        <time>2012-06-07T20:23:11Z</time>
      </trkpt>
      <trkpt lat="44.95596" lon="3.60443">
        <ele>1054.640625</ele>
        <time>2012-06-07T20:23:31Z</time>
      </trkpt>
      <trkpt lat="44.95557" lon="3.60275">
        <ele>1044.52734375</ele>
        <time>2012-06-07T20:23:51Z</time>
      </trkpt>
      <trkpt lat="44.95561" lon="3.60212">
        <ele>1044.78515625</ele>
        <time>2012-06-07T20:24:11Z</time>
      </trkpt>
      <trkpt lat="44.95583" lon="3.6011">
        <ele>1051.94140625</ele>
        <time>2012-06-07T20:24:31Z</time>
      </trkpt>
      <trkpt lat="44.95621" lon="3.60061">
        <ele>1050.921875</ele>
        <time>2012-06-07T20:24:51Z</time>
      </trkpt>
      <trkpt lat="44.95629" lon="3.5999">
        <ele>1051.2734375</ele>
        <time>2012-06-07T20:25:11Z</time>
      </trkpt>
      <trkpt lat="44.95601" lon="3.59627">
        <ele>1053.48828125</ele>
        <time>2012-06-07T20:25:31Z</time>
      </trkpt>
      <trkpt lat="44.95615" lon="3.5953">
        <ele>1049.5</ele>
        <time>2012-06-07T20:25:51Z</time>
      </trkpt>
      <trkpt lat="44.95715" lon="3.59478">
        <ele>1046.640625</ele>
        <time>2012-06-07T20:26:11Z</time>
      </trkpt>
      <trkpt lat="44.95702" lon="3.59448">
        <ele>1046.984375</ele>
        <time>2012-06-07T20:26:31Z</time>
      </trkpt>
      <trkpt lat="44.9572" lon="3.59434">
        <ele>1048.5390625</ele>
        <time>2012-06-07T20:26:51Z</time>
      </trkpt>
      <trkpt lat="44.95741" lon="3.59441">
        <ele>1049.7890625</ele>
        <time>2012-06-07T20:27:11Z</time>
      </trkpt>
      <trkpt lat="44.95768" lon="3.59397">
        <ele>1054.234375</ele>
        <time>2012-06-07T20:27:31Z</time>
      </trkpt>
      <trkpt lat="44.95792" lon="3.59295">
        <ele>1060.0546875</ele>
        <time>2012-06-07T20:27:51Z</time>
      </trkpt>
      <trkpt lat="44.95802" lon="3.59279">
        <ele>1060.53515625</ele>
        <time>2012-06-07T20:28:11Z</time>
      </trkpt>
      <trkpt lat="44.95766" lon="3.59236">
        <ele>1060.79296875</ele>
        <time>2012-06-07T20:28:31Z</time>
      </trkpt>
      <trkpt lat="44.95672" lon="3.59146">
        <ele>1067.26171875</ele>
        <time>2012-06-07T20:28:51Z</time>
      </trkpt>
      <trkpt lat="44.95618" lon="3.59133">
        <ele>1066.3125</ele>
        <time>2012-06-07T20:29:11Z</time>
      </trkpt>
      <trkpt lat="44.95585" lon="3.59098">
        <ele>1066.4296875</ele>
        <time>2012-06-07T20:29:31Z</time>
      </trkpt>
      <trkpt lat="44.95583" lon="3.59088">
        <ele>1067.0859375</ele>
        <time>2012-06-07T20:29:51Z</time>
      </trkpt>
      <trkpt lat="44.95564" lon="3.59056">
        <ele>1068.33203125</ele>
        <time>2012-06-07T20:30:11Z</time>
      </trkpt>
      <trkpt lat="44.95385" lon="3.58889">
        <ele>1079.99609375</ele>
        <time>2012-06-07T20:30:31Z</time>
      </trkpt>
      <trkpt lat="44.95318" lon="3.58752">
        <ele>1079.1015625</ele>
        <time>2012-06-07T20:30:51Z</time>
      </trkpt>
      <trkpt lat="44.9528" lon="3.58718">
        <ele>1078.68359375</ele>
        <time>2012-06-07T20:31:11Z</time>
      </trkpt>
      <trkpt lat="44.95242" lon="3.58718">
        <ele>1078</ele>
        <time>2012-06-07T20:31:31Z</time>
      </trkpt>
      <trkpt lat="44.95212" lon="3.58692">
        <ele>1077.83203125</ele>
        <time>2012-06-07T20:31:51Z</time>
      </trkpt>
      <trkpt lat="44.95144" lon="3.58654">
        <ele>1077.04296875</ele>
        <time>2012-06-07T20:32:11Z</time>
      </trkpt>
      <trkpt lat="44.9506" lon="3.58587">
        <ele>1076.7265625</ele>
        <time>2012-06-07T20:32:31Z</time>
      </trkpt>
      <trkpt lat="44.95036" lon="3.58582">
        <ele>1079.33203125</ele>
        <time>2012-06-07T20:32:51Z</time>
      </trkpt>
      <trkpt lat="44.95024" lon="3.58558">
        <ele>1080.5859375</ele>
        <time>2012-06-07T20:33:11Z</time>
      </trkpt>
      <trkpt lat="44.9502" lon="3.58513">
        <ele>1080.2890625</ele>
        <time>2012-06-07T20:33:31Z</time>
      </trkpt>
      <trkpt lat="44.94964" lon="3.58307">
        <ele>1082.03515625</ele>
        <time>2012-06-07T20:33:51Z</time>
      </trkpt>
      <trkpt lat="44.94923" lon="3.58242">
        <ele>1083.45703125</ele>
        <time>2012-06-07T20:34:11Z</time>
      </trkpt>
      <trkpt lat="44.94907" lon="3.58165">
        <ele>1083.4609375</ele>
        <time>2012-06-07T20:34:31Z</time>
      </trkpt>
      <trkpt lat="44.94888" lon="3.5803">
        <ele>1083.8828125</ele>
        <time>2012-06-07T20:34:51Z</time>
      </trkpt>
      <trkpt lat="44.94891" lon="3.57899">
        <ele>1085.1171875</ele>
        <time>2012-06-07T20:35:11Z</time>
      </trkpt>
      <trkpt lat="44.95002" lon="3.57727">
        <ele>1092.6484375</ele>
        <time>2012-06-07T20:35:31Z</time>
      </trkpt>
      <trkpt lat="44.95006" lon="3.57593">
        <ele>1097.62890625</ele>
        <time>2012-06-07T20:35:51Z</time>
      </trkpt>
      <trkpt lat="44.9502" lon="3.57445">
        <ele>1101</ele>
        <time>2012-06-07T20:36:11Z</time>
      </trkpt>
      <trkpt lat="44.9506" lon="3.5728">
        <ele>1101.08203125</ele>
        <time>2012-06-07T20:36:31Z</time>
      </trkpt>
      <trkpt lat="44.95091" lon="3.57193">
        <ele>1101.12890625</ele>
        <time>2012-06-07T20:36:51Z</time>
      </trkpt>
      <trkpt lat="44.95156" lon="3.56957">
        <ele>1100.5</ele>
        <time>2012-06-07T20:37:11Z</time>
      </trkpt>
      <trkpt lat="44.95194" lon="3.56873">
        <ele>1102</ele>
        <time>2012-06-07T20:37:31Z</time>
      </trkpt>
      <trkpt lat="44.95204" lon="3.56822">
        <ele>1102</ele>
        <time>2012-06-07T20:37:51Z</time>
      </trkpt>
      <trkpt lat="44.95324" lon="3.56626">
        <ele>1080.64453125</ele>
        <time>2012-06-07T20:38:11Z</time>
      </trkpt>
      <trkpt lat="44.95352" lon="3.56592">
        <ele>1075.4375</ele>
        <time>2012-06-07T20:38:31Z</time>
      </trkpt>
      <trkpt lat="44.954" lon="3.56487">
        <ele>1064.05859375</ele>
        <time>2012-06-07T20:38:51Z</time>
      </trkpt>
      <trkpt lat="44.95404" lon="3.56387">
        <ele>1058.359375</ele>
        <time>2012-06-07T20:39:11Z</time>
      </trkpt>
      <trkpt lat="44.95424" lon="3.56336">
        <ele>1058.36328125</ele>
        <time>2012-06-07T20:39:31Z</time>
      </trkpt>
      <trkpt lat="44.95445" lon="3.56262">
        <ele>1055.60546875</ele>
        <time>2012-06-07T20:39:51Z</time>
      </trkpt>
      <trkpt lat="44.95479" lon="3.56184">
        <ele>1052.87890625</ele>
        <time>2012-06-07T20:40:11Z</time>
      </trkpt>
      <trkpt lat="44.9549" lon="3.5613">
        <ele>1051.33984375</ele>
        <time>2012-06-07T20:40:31Z</time>
      </trkpt>
      <trkpt lat="44.95495" lon="3.56071">
        <ele>1050.47265625</ele>
        <time>2012-06-07T20:40:51Z</time>
      </trkpt>
      <trkpt lat="44.95598" lon="3.55869">
        <ele>1035.68359375</ele>
        <time>2012-06-07T20:41:11Z</time>
      </trkpt>
      <trkpt lat="44.95618" lon="3.55838">
        <ele>1032.61328125</ele>
        <time>2012-06-07T20:41:31Z</time>
      </trkpt>
      <trkpt lat="44.95642" lon="3.55783">
        <ele>1026.4296875</ele>
        <time>2012-06-07T20:41:51Z</time>
      </trkpt>
      <trkpt lat="44.95703" lon="3.55686">
        <ele>1015.609375</ele>
        <time>2012-06-07T20:42:11Z</time>
      </trkpt>
      <trkpt lat="44.95748" lon="3.55571">
        <ele>996.77734375</ele>
        <time>2012-06-07T20:42:31Z</time>
      </trkpt>
      <trkpt lat="44.95766" lon="3.55435">
        <ele>979.20703125</ele>
        <time>2012-06-07T20:42:51Z</time>
      </trkpt>
      <trkpt lat="44.95829" lon="3.55257">
        <ele>962.58984375</ele>
        <time>2012-06-07T20:43:11Z</time>
      </trkpt>
      <trkpt lat="44.95873" lon="3.55188">
        <ele>959.51953125</ele>
        <time>2012-06-07T20:43:31Z</time>
      </trkpt>
      <trkpt lat="44.95869" lon="3.55137">
        <ele>958.09765625</ele>
        <time>2012-06-07T20:43:51Z</time>
      </trkpt>
      <trkpt lat="44.95901" lon="3.55108">
        <ele>956.9453125</ele>
        <time>2012-06-07T20:44:11Z</time>
      </trkpt>
      <trkpt lat="44.95955" lon="3.55026">
        <ele>957.28515625</ele>
        <time>2012-06-07T20:44:31Z</time>
      </trkpt>
      <trkpt lat="44.95977" lon="3.55016">
        <ele>956.34375</ele>
        <time>2012-06-07T20:44:51Z</time>
      </trkpt>
      <trkpt lat="44.95968" lon="3.55002">
        <ele>957.28515625</ele>
        <time>2012-06-07T20:45:11Z</time>
      </trkpt>
      <trkpt lat="44.96014" lon="3.54959">
        <ele>956.60546875</ele>
        <time>2012-06-07T20:45:31Z</time>
      </trkpt>
      <trkpt lat="44.96007" lon="3.54885">
        <ele>961.14453125</ele>
        <time>2012-06-07T20:45:51Z</time>
      </trkpt>
      <trkpt lat="44.96099" lon="3.54825">
        <ele>964.03515625</ele>
        <time>2012-06-07T20:46:11Z</time>
      </trkpt>
    </trkseg>
  </trk>
</gpx>